Time;durP1;ratioP1;P1;durP2;ratioP2;P2;SDS_P1;SDS_P2;PMS_P1;PMS_P2;Temp;Humidity;BMP_temperature;BMP_pressure;BME280_temperature;BME280_humidity;BME280_pressure;Samples;Min_cycle;Max_cycle;Signal;HPM_P1;HPM_P2
2024/02/02 00:00:34;;;;;;;;;;;;;;;17.42;35.14;101155.53;4900324;29;1038;-45
2024/02/02 00:02:59;;;;;;;;;;;;;;;16.58;36.56;101151.41;4902581;29;1022;-45
2024/02/02 00:05:25;;;;;;;;;;;;;;;15.87;37.94;101141.72;4902372;29;1096;-50
2024/02/02 00:07:51;;;;;;;;;;;;;;;15.51;38.51;101151.91;4899168;29;1986;-46
2024/02/02 00:10:16;;;;;;;;;;;;;;;16.21;37.82;101146.69;4893840;29;1144;-46
2024/02/02 00:12:42;;;;;;;;;;;;;;;17.41;35.33;101140.53;4901525;29;1089;-48
2024/02/02 00:15:08;;;;;;;;;;;;;;;16.60;36.65;101139.69;4906528;29;1097;-43
2024/02/02 00:17:33;;;;;;;;;;;;;;;15.91;37.97;101136.13;4887081;29;1077;-45
2024/02/02 00:19:59;;;;;;;;;;;;;;;15.60;38.53;101134.59;4901252;29;2467;-46
2024/02/02 00:22:25;;;;;;;;;;;;;;;15.71;38.43;101134.75;4901882;29;1002;-44
2024/02/02 00:24:51;;;;;;;;;;;;;;;17.13;35.88;101140.66;4902242;29;1041;-46
2024/02/02 00:27:18;;;;;;;;;;;;;;;16.47;36.71;101146.78;4885251;29;1911;-42
2024/02/02 00:29:45;;;;;;;;;;;;;;;15.78;38.08;101127.25;4883408;29;1036;-44
2024/02/02 00:32:14;;;;;;;;;;;;;;;15.50;38.54;101126.31;4898335;29;1177;-43
2024/02/02 00:34:40;;;;;;;;;;;;;;;16.44;37.18;101133.72;4901564;29;1077;-47
2024/02/02 00:37:06;;;;;;;;;;;;;;;17.53;35.14;101134.34;4889102;29;1167;-44
2024/02/02 00:39:31;;;;;;;;;;;;;;;16.64;36.27;101132.38;4890477;29;1169;-41
2024/02/02 00:41:57;;;;;;;;;;;;;;;16.04;37.45;101127.41;4888098;29;1062;-46
2024/02/02 00:44:22;;;;;;;;;;;;;;;15.57;38.71;101134.75;4897012;29;1045;-44
2024/02/02 00:46:48;;;;;;;;;;;;;;;15.36;38.99;101141.31;4887657;29;1907;-45
2024/02/02 00:49:13;;;;;;;;;;;;;;;16.69;36.50;101129.41;4890458;29;1165;-46
2024/02/02 00:51:39;;;;;;;;;;;;;;;17.39;35.11;101124.69;4887666;29;2580;-45
2024/02/02 00:54:05;;;;;;;;;;;;;;;16.32;37.12;101117.63;4901509;29;1034;-45
2024/02/02 00:56:30;;;;;;;;;;;;;;;15.78;38.08;101112.19;4884672;29;1153;-41
2024/02/02 00:58:56;;;;;;;;;;;;;;;15.51;38.52;101106.84;4882789;29;1058;-48
2024/02/02 01:01:21;;;;;;;;;;;;;;;16.06;38.00;101109.59;4884818;29;1079;-45
2024/02/02 01:03:47;;;;;;;;;;;;;;;17.34;35.21;101103.75;4882921;29;1015;-45
2024/02/02 01:06:12;;;;;;;;;;;;;;;16.66;36.19;101109.22;4899786;29;1066;-42
2024/02/02 01:08:38;;;;;;;;;;;;;;;15.96;37.83;101116.41;4896236;29;1915;-47
2024/02/02 01:11:03;;;;;;;;;;;;;;;15.60;38.24;101116.03;4882822;29;1082;-47
2024/02/02 01:13:29;;;;;;;;;;;;;;;15.59;38.84;101130.22;4893581;29;1186;-44
2024/02/02 01:15:54;;;;;;;;;;;;;;;17.10;35.75;101131.06;4899917;29;1094;-48
2024/02/02 01:18:20;;;;;;;;;;;;;;;16.68;36.32;101123.28;4900973;29;1030;-45
2024/02/02 01:20:45;;;;;;;;;;;;;;;15.92;37.61;101121.06;4886934;29;2454;-45
2024/02/02 01:23:11;;;;;;;;;;;;;;;15.60;38.66;101118.69;4893234;29;1139;-47
2024/02/02 01:25:37;;;;;;;;;;;;;;;15.27;38.98;101121.53;4896706;29;1053;-45
2024/02/02 01:28:02;;;;;;;;;;;;;;;16.74;36.67;101130.81;4893246;29;1972;-46
2024/02/02 01:30:29;;;;;;;;;;;;;;;17.39;34.93;101132.66;4900856;29;1049;-45
2024/02/02 01:32:58;;;;;;;;;;;;;;;16.30;36.89;101127.50;4895538;29;1113;-43
2024/02/02 01:35:23;;;;;;;;;;;;;;;15.81;37.96;101115.59;4900317;29;1201;-45
2024/02/02 01:37:49;;;;;;;;;;;;;;;15.42;38.64;101116.22;4889544;29;1126;-46
2024/02/02 01:40:14;;;;;;;;;;;;;;;16.77;36.38;101119.97;4882516;29;1128;-44
2024/02/02 01:42:43;;;;;;;;;;;;;;;17.32;35.11;101112.78;4893751;29;870;-47
2024/02/02 01:45:08;;;;;;;;;;;;;;;16.27;37.29;101107.34;4899666;29;1011;-44
2024/02/02 01:47:34;;;;;;;;;;;;;;;15.71;38.17;101099.41;4901090;29;1899;-43
2024/02/02 01:50:00;;;;;;;;;;;;;;;15.50;38.50;101113.06;4899856;29;2499;-46
2024/02/02 01:52:25;;;;;;;;;;;;;;;16.27;37.26;101094.06;4900937;29;1030;-47
2024/02/02 01:54:51;;;;;;;;;;;;;;;17.43;35.01;101104.03;4900728;29;1248;-46
2024/02/02 01:57:19;;;;;;;;;;;;;;;16.53;36.58;101107.38;4896763;29;1210;-45
2024/02/02 01:59:44;;;;;;;;;;;;;;;15.88;37.65;101108.97;4885828;29;1217;-44
2024/02/02 02:02:12;;;;;;;;;;;;;;;15.49;38.64;101101.63;4889842;29;1033;-46
2024/02/02 02:04:39;;;;;;;;;;;;;;;15.51;38.45;101110.34;4898538;29;1084;-48
2024/02/02 02:07:04;;;;;;;;;;;;;;;16.98;35.87;101111.47;4900284;29;1989;-44
2024/02/02 02:09:30;;;;;;;;;;;;;;;17.01;35.41;101113.94;4889882;29;1023;-48
2024/02/02 02:11:55;;;;;;;;;;;;;;;16.10;37.14;101115.56;4912214;29;939;-45
2024/02/02 02:14:21;;;;;;;;;;;;;;;15.61;38.08;101117.72;4882029;29;1143;-46
2024/02/02 02:16:50;;;;;;;;;;;;;;;15.41;38.75;101112.69;4881898;29;1026;-46
2024/02/02 02:19:15;;;;;;;;;;;;;;;16.64;36.43;101124.41;4899061;29;1062;-44
2024/02/02 02:21:41;;;;;;;;;;;;;;;17.51;34.73;101128.28;4896757;29;2838;-49
2024/02/02 02:24:08;;;;;;;;;;;;;;;16.49;36.45;101121.84;4898770;29;1121;-45
2024/02/02 02:26:34;;;;;;;;;;;;;;;15.92;37.60;101118.41;4896736;29;1074;-47
2024/02/02 02:28:59;;;;;;;;;;;;;;;15.65;37.96;101121.88;4903387;29;1907;-47
2024/02/02 02:31:25;;;;;;;;;;;;;;;15.70;37.96;101130.38;4892600;29;1070;-47
2024/02/02 02:33:51;;;;;;;;;;;;;;;17.08;35.49;101130.28;4898386;29;991;-47
2024/02/02 02:36:16;;;;;;;;;;;;;;;16.71;35.80;101130.16;4903449;29;1026;-46
2024/02/02 02:38:42;;;;;;;;;;;;;;;15.91;37.22;101120.19;4903595;29;1070;-43
2024/02/02 02:41:08;;;;;;;;;;;;;;;15.51;38.32;101126.25;4903542;29;1121;-46
2024/02/02 02:43:33;;;;;;;;;;;;;;;15.40;38.37;101139.31;4903148;29;1149;-44
2024/02/02 02:45:59;;;;;;;;;;;;;;;16.82;35.91;101140.91;4903175;29;1098;-49
2024/02/02 02:48:24;;;;;;;;;;;;;;;17.35;34.62;101140.00;4902673;29;1977;-46
2024/02/02 02:50:50;;;;;;;;;;;;;;;16.28;36.58;101135.56;4895345;29;2556;-45
2024/02/02 02:53:16;;;;;;;;;;;;;;;15.79;37.60;101131.59;4889026;29;1234;-45
2024/02/02 02:55:41;;;;;;;;;;;;;;;15.48;38.46;101131.72;4903110;29;1046;-45
2024/02/02 02:58:07;;;;;;;;;;;;;;;16.37;36.86;101130.59;4895464;29;1174;-46
2024/02/02 03:00:32;;;;;;;;;;;;;;;17.40;34.70;101129.03;4903250;29;1046;-47
2024/02/02 03:02:58;;;;;;;;;;;;;;;16.45;36.39;101130.13;4890569;29;1146;-43
2024/02/02 03:05:25;;;;;;;;;;;;;;;15.85;37.51;101117.13;4891879;29;1197;-43
2024/02/02 03:07:51;;;;;;;;;;;;;;;15.50;38.29;101132.50;4901935;29;1983;-49
2024/02/02 03:10:16;;;;;;;;;;;;;;;16.05;36.98;101129.09;4892978;29;1097;-46
2024/02/02 03:12:42;;;;;;;;;;;;;;;17.26;34.80;101122.03;4888900;29;1090;-46
2024/02/02 03:15:08;;;;;;;;;;;;;;;16.64;35.88;101114.66;4903402;29;1051;-45
2024/02/02 03:17:33;;;;;;;;;;;;;;;15.99;36.97;101121.53;4902824;29;1126;-43
2024/02/02 03:19:59;;;;;;;;;;;;;;;15.63;37.70;101111.34;4900999;29;2623;-46
2024/02/02 03:22:24;;;;;;;;;;;;;;;15.37;38.26;101116.50;4889071;29;1233;-45
2024/02/02 03:24:50;;;;;;;;;;;;;;;16.80;35.92;101123.38;4884292;29;1106;-44
2024/02/02 03:27:15;;;;;;;;;;;;;;;17.18;34.93;101116.41;4888739;29;1993;-45
2024/02/02 03:29:41;;;;;;;;;;;;;;;16.24;36.50;101123.47;4902689;29;990;-46
2024/02/02 03:32:06;;;;;;;;;;;;;;;15.78;37.43;101121.97;4902169;29;1180;-44
2024/02/02 03:34:32;;;;;;;;;;;;;;;15.51;37.95;101126.25;4890170;29;1097;-44
2024/02/02 03:36:57;;;;;;;;;;;;;;;15.29;38.44;101132.88;4888728;29;1106;-46
2024/02/02 03:39:23;;;;;;;;;;;;;;;16.82;35.96;101143.56;4902656;29;1089;-47
2024/02/02 03:41:49;;;;;;;;;;;;;;;17.07;35.11;101149.88;4902744;29;1050;-49
2024/02/02 03:44:14;;;;;;;;;;;;;;;16.10;37.03;101158.84;4906115;29;1201;-43
2024/02/02 03:46:40;;;;;;;;;;;;;;;15.70;37.65;101145.47;4889565;29;1226;-45
2024/02/02 03:49:06;;;;;;;;;;;;;;;15.39;38.49;101146.44;4883625;29;1912;-45
2024/02/02 03:51:31;;;;;;;;;;;;;;;16.31;36.79;101153.13;4886476;29;2533;-48
2024/02/02 03:53:57;;;;;;;;;;;;;;;17.38;34.89;101152.25;4883361;29;1042;-48
2024/02/02 03:56:22;;;;;;;;;;;;;;;16.44;36.04;101152.28;4900044;29;1088;-44
2024/02/02 03:58:48;;;;;;;;;;;;;;;15.77;37.20;101152.94;4915249;29;932;-51
2024/02/02 04:01:13;;;;;;;;;;;;;;;15.46;37.93;101148.69;4891727;29;1090;-43
2024/02/02 04:03:39;;;;;;;;;;;;;;;16.37;36.45;101151.84;4901730;29;1006;-46
2024/02/02 04:06:04;;;;;;;;;;;;;;;17.27;34.80;101145.00;4901919;29;1058;-44
2024/02/02 04:08:30;;;;;;;;;;;;;;;16.25;36.56;101153.50;4902267;29;1912;-43
2024/02/02 04:10:56;;;;;;;;;;;;;;;15.69;37.51;101163.16;4896676;29;1101;-45
2024/02/02 04:13:21;;;;;;;;;;;;;;;15.40;38.22;101169.31;4901715;29;1034;-45
2024/02/02 04:15:47;;;;;;;;;;;;;;;16.08;37.38;101167.88;4889369;29;1118;-46
2024/02/02 04:18:12;;;;;;;;;;;;;;;17.29;34.87;101167.03;4901868;29;1110;-42
2024/02/02 04:20:38;;;;;;;;;;;;;;;16.53;35.90;101173.78;4894545;29;2549;-47
2024/02/02 04:23:03;;;;;;;;;;;;;;;15.93;37.27;101177.63;4884812;29;959;-45
2024/02/02 04:25:29;;;;;;;;;;;;;;;15.56;37.74;101176.34;4885690;29;1027;-46
2024/02/02 04:27:54;;;;;;;;;;;;;;;16.12;36.90;101175.53;4901425;29;1907;-43
2024/02/02 04:30:20;;;;;;;;;;;;;;;17.33;34.74;101179.13;4888886;29;995;-42
2024/02/02 04:32:46;;;;;;;;;;;;;;;16.45;35.88;101177.91;4916102;29;1035;-44
2024/02/02 04:35:11;;;;;;;;;;;;;;;15.85;37.23;101171.00;4891465;29;1168;-45
2024/02/02 04:37:38;;;;;;;;;;;;;;;15.58;37.86;101169.13;4901666;29;1102;-45
2024/02/02 04:40:04;;;;;;;;;;;;;;;16.25;36.65;101175.59;4900488;29;1077;-42
2024/02/02 04:42:29;;;;;;;;;;;;;;;17.35;34.73;101179.06;4901347;29;1022;-43
2024/02/02 04:44:55;;;;;;;;;;;;;;;16.45;35.89;101178.75;4898228;29;1113;-45
2024/02/02 04:47:22;;;;;;;;;;;;;;;15.85;37.40;101175.47;4894401;29;1915;-42
2024/02/02 04:49:47;;;;;;;;;;;;;;;15.42;38.42;101166.59;4898295;29;2405;-41
2024/02/02 04:52:13;;;;;;;;;;;;;;;15.87;37.38;101165.59;4891812;29;1085;-40
2024/02/02 04:54:39;;;;;;;;;;;;;;;17.18;35.11;101174.91;4886072;29;1153;-39
2024/02/02 04:57:04;;;;;;;;;;;;;;;16.80;35.41;101169.38;4891934;29;1135;-43
2024/02/02 04:59:30;;;;;;;;;;;;;;;16.09;36.77;101180.19;4887334;29;1313;-45
2024/02/02 05:01:55;;;;;;;;;;;;;;;15.63;38.11;101190.09;4882674;29;1107;-41
2024/02/02 05:04:21;;;;;;;;;;;;;;;15.38;38.42;101191.59;4882210;29;1153;-45
2024/02/02 05:06:46;;;;;;;;;;;;;;;16.48;36.54;101197.13;4891679;29;1167;-47
2024/02/02 05:09:12;;;;;;;;;;;;;;;17.46;34.63;101197.78;4901034;29;1969;-48
2024/02/02 05:11:37;;;;;;;;;;;;;;;16.36;36.63;101195.28;4900590;29;894;-46
2024/02/02 05:14:03;;;;;;;;;;;;;;;15.84;37.51;101202.94;4888850;29;1030;-44
2024/02/02 05:16:28;;;;;;;;;;;;;;;15.50;38.24;101216.47;4900898;29;1083;-45
2024/02/02 05:18:54;;;;;;;;;;;;;;;16.70;36.08;101216.97;4887905;29;1173;-43
2024/02/02 05:21:19;;;;;;;;;;;;;;;16.57;35.80;101216.06;4892303;29;1574;-46
2024/02/02 05:23:45;;;;;;;;;;;;;;;15.30;38.67;101222.06;4896746;29;1085;-44
2024/02/02 05:26:10;;;;;;;;;;;;;;;16.66;36.16;101220.81;4900493;29;1054;-45
2024/02/02 05:28:36;;;;;;;;;;;;;;;16.14;36.42;101233.84;4898884;29;1970;-45
2024/02/02 05:31:01;;;;;;;;;;;;;;;16.24;36.71;101237.63;4882521;29;1082;-48
2024/02/02 05:33:27;;;;;;;;;;;;;;;17.88;34.09;101260.53;4884350;29;1099;-47
2024/02/02 05:35:53;;;;;;;;;;;;;;;16.10;36.80;101265.03;4887224;29;927;-47
2024/02/02 05:38:18;;;;;;;;;;;;;;;15.38;38.63;101271.13;4897193;29;1073;-45
2024/02/02 05:40:44;;;;;;;;;;;;;;;15.03;39.32;101273.09;4900470;29;1031;-47
2024/02/02 05:43:10;;;;;;;;;;;;;;;17.10;35.48;101279.09;4886581;29;1154;-48
2024/02/02 05:45:36;;;;;;;;;;;;;;;15.86;37.60;101270.91;4882371;29;1089;-45
2024/02/02 05:48:02;;;;;;;;;;;;;;;15.83;38.14;101286.97;4881672;29;1981;-45
2024/02/02 05:50:27;;;;;;;;;;;;;;;17.27;34.67;101285.94;4881899;29;1265;-44
2024/02/02 05:52:53;;;;;;;;;;;;;;;15.62;37.75;101291.78;4896886;29;1081;-47
2024/02/02 05:55:18;;;;;;;;;;;;;;;16.25;37.10;101287.09;4900967;29;1158;-44
2024/02/02 05:57:44;;;;;;;;;;;;;;;16.70;35.86;101301.16;4901006;29;1086;-45
2024/02/02 06:00:10;;;;;;;;;;;;;;;15.65;38.01;101302.22;4885634;29;954;-48
2024/02/02 06:02:36;;;;;;;;;;;;;;;15.18;38.95;101312.91;4887324;29;1249;-48
2024/02/02 06:05:02;;;;;;;;;;;;;;;17.33;34.97;101328.06;4896655;29;1042;-47
2024/02/02 06:07:27;;;;;;;;;;;;;;;15.71;37.63;101336.34;4898963;29;1911;-45
2024/02/02 06:09:53;;;;;;;;;;;;;;;17.02;35.71;101333.59;4896047;29;1062;-45
2024/02/02 06:12:19;;;;;;;;;;;;;;;16.85;35.82;101347.13;4899509;29;881;-47
2024/02/02 06:14:44;;;;;;;;;;;;;;;15.89;37.63;101350.31;4896442;29;857;-47
2024/02/02 06:17:10;;;;;;;;;;;;;;;17.95;34.05;101359.44;4896998;29;1130;-47
2024/02/02 06:19:36;;;;;;;;;;;;;;;16.30;36.81;101353.16;4898205;29;1504;-44
2024/02/02 06:22:02;;;;;;;;;;;;;;;15.65;38.52;101366.72;4893067;29;1109;-44
2024/02/02 06:24:27;;;;;;;;;;;;;;;16.81;36.29;101364.22;4890820;29;1104;-43
2024/02/02 06:26:53;;;;;;;;;;;;;;;16.46;36.20;101358.41;4893948;29;1984;-45
2024/02/02 06:29:19;;;;;;;;;;;;;;;15.63;38.32;101367.78;4891501;29;1174;-48
2024/02/02 06:31:44;;;;;;;;;;;;;;;17.36;35.24;101353.59;4903144;29;1035;-47
2024/02/02 06:34:10;;;;;;;;;;;;;;;16.04;37.08;101360.94;4903536;29;1138;-45
2024/02/02 06:36:36;;;;;;;;;;;;;;;15.51;38.29;101350.78;4887699;29;907;-47
2024/02/02 06:39:01;;;;;;;;;;;;;;;16.57;36.96;101365.69;4902750;29;1023;-43
2024/02/02 06:41:27;;;;;;;;;;;;;;;15.78;37.69;101360.72;4903218;29;1050;-47
2024/02/02 06:43:52;;;;;;;;;;;;;;;15.33;39.12;101371.28;4918273;29;1101;-52
2024/02/02 06:46:18;;;;;;;;;;;;;;;17.42;35.08;101366.50;4890772;29;1097;-48
2024/02/02 06:48:44;;;;;;;;;;;;;;;15.78;38.04;101379.28;4890892;29;1910;-44
2024/02/02 06:51:10;;;;;;;;;;;;;;;15.61;38.73;101380.25;4903598;29;1043;-45
2024/02/02 06:53:36;;;;;;;;;;;;;;;17.61;34.58;101386.53;4903285;29;1133;-47
2024/02/02 06:56:03;;;;;;;;;;;;;;;15.90;37.64;101393.59;4903562;29;1097;-45
2024/02/02 06:58:44;;;;;;;;;;;;;;;16.66;36.71;101390.81;4918030;29;1038;-49
2024/02/02 07:01:09;;;;;;;;;;;;;;;16.48;36.73;101392.81;4897024;29;947;-48
2024/02/02 07:03:35;;;;;;;;;;;;;;;15.67;38.30;101393.16;4884841;29;1046;-50
2024/02/02 07:06:02;;;;;;;;;;;;;;;17.38;35.21;101388.94;4884712;29;1035;-45
2024/02/02 07:08:29;;;;;;;;;;;;;;;15.92;37.92;101391.69;4907714;29;1907;-48
2024/02/02 07:11:15;;;;;;;;;;;;;;;15.46;38.55;101398.78;4901853;29;1109;-49
2024/02/02 07:13:47;;;;;;;;;;;;;;;16.80;36.57;101392.56;4888323;29;1277;-44
2024/02/02 07:16:16;;;;;;;;;;;;;;;16.12;37.27;101408.25;4902584;29;1057;-47
2024/02/02 07:18:42;;;;;;;;;;;;;;;14.83;38.46;101310.47;4902989;29;1134;-47
2024/02/02 07:21:07;;;;;;;;;;;;;;;15.17;39.31;101415.41;4902576;29;1174;-48
2024/02/02 07:23:34;;;;;;;;;;;;;;;16.88;36.09;101410.72;4901065;29;1145;-44
2024/02/02 07:26:00;;;;;;;;;;;;;;;16.19;37.03;101422.00;4902472;29;1078;-47
2024/02/02 07:28:38;;;;;;;;;;;;;;;15.40;38.85;101434.44;4899668;29;1907;-47
2024/02/02 07:31:04;;;;;;;;;;;;;;;17.15;35.29;101431.16;4894399;29;1151;-43
2024/02/02 07:33:40;;;;;;;;;;;;;;;15.66;38.00;101429.44;4902468;29;1133;-42
2024/02/02 07:36:09;;;;;;;;;;;;;;;16.61;36.80;101436.28;4900314;29;1470;-44
2024/02/02 07:38:45;;;;;;;;;;;;;;;16.17;37.38;101422.09;4896897;29;1274;-49
2024/02/02 07:41:12;;;;;;;;;;;;;;;15.46;38.46;101422.66;4900913;29;1426;-45
2024/02/02 07:43:38;;;;;;;;;;;;;;;16.62;37.02;101435.31;4902186;29;1125;-48
2024/02/02 07:46:03;;;;;;;;;;;;;;;15.90;37.90;101428.94;4902468;29;1367;-47
2024/02/02 07:48:29;;;;;;;;;;;;;;;15.83;38.25;101432.06;4896491;29;1906;-49
2024/02/02 07:50:55;;;;;;;;;;;;;;;17.22;35.23;101431.63;4902161;29;1097;-49
2024/02/02 07:53:20;;;;;;;;;;;;;;;15.74;37.97;101441.41;4902089;29;1066;-45
2024/02/02 07:55:46;;;;;;;;;;;;;;;16.78;36.59;101447.66;4902684;29;1339;-46
2024/02/02 07:58:11;;;;;;;;;;;;;;;16.27;37.21;101446.28;4901294;29;1173;-48
2024/02/02 08:00:37;;;;;;;;;;;;;;;15.51;38.54;101448.91;4901343;29;1184;-47
2024/02/02 08:03:03;;;;;;;;;;;;;;;15.22;39.15;101454.03;4902026;29;1228;-47
2024/02/02 08:05:28;;;;;;;;;;;;;;;17.41;35.22;101447.25;4902102;29;1205;-45
2024/02/02 08:07:54;;;;;;;;;;;;;;;15.84;37.70;101442.56;4901870;29;1911;-45
2024/02/02 08:10:19;;;;;;;;;;;;;;;16.49;37.17;101451.16;4901978;29;1430;-48
2024/02/02 08:12:45;;;;;;;;;;;;;;;16.77;36.06;101445.91;4901076;29;1157;-46
2024/02/02 08:15:10;;;;;;;;;;;;;;;15.73;38.24;101452.97;4901522;29;1107;-45
2024/02/02 08:17:36;;;;;;;;;;;;;;;15.37;38.67;101449.66;4901710;29;1073;-42
2024/02/02 08:20:02;;;;;;;;;;;;;;;17.45;35.20;101448.75;4901193;29;1213;-40
2024/02/02 08:22:27;;;;;;;;;;;;;;;15.95;37.77;101463.16;4894823;29;1142;-43
2024/02/02 08:24:53;;;;;;;;;;;;;;;15.45;38.56;101460.69;4894251;29;1419;-41
2024/02/02 08:27:19;;;;;;;;;;;;;;;17.58;35.08;101463.91;4901615;29;1910;-40
2024/02/02 08:29:45;;;;;;;;;;;;;;;16.01;37.67;101470.81;4890346;29;1194;-43
2024/02/02 08:32:11;;;;;;;;;;;;;;;15.48;39.18;101475.59;4900614;29;1270;-40
2024/02/02 08:34:36;;;;;;;;;;;;;;;17.06;35.65;101479.59;4901770;29;1319;-42
2024/02/02 08:37:02;;;;;;;;;;;;;;;15.79;38.31;101493.25;4900140;29;1352;-41
2024/02/02 08:39:28;;;;;;;;;;;;;;;15.74;38.60;101490.00;4900455;29;1074;-44
2024/02/02 08:41:54;;;;;;;;;;;;;;;17.63;34.78;101483.09;4915566;29;1288;-46
2024/02/02 08:44:20;;;;;;;;;;;;;;;16.01;37.66;101483.22;4890226;29;1066;-40
2024/02/02 08:46:46;;;;;;;;;;;;;;;16.42;37.12;101489.66;4895991;29;1192;-42
2024/02/02 08:49:21;;;;;;;;;;;;;;;17.03;35.57;101485.97;4892097;29;1888;-42
2024/02/02 08:51:47;;;;;;;;;;;;;;;15.81;38.24;101484.34;4901070;29;1104;-43
2024/02/02 08:54:15;;;;;;;;;;;;;;;15.45;38.83;101479.25;4915005;29;1363;-44
2024/02/02 08:56:41;;;;;;;;;;;;;;;17.29;35.60;101482.59;4900809;29;1102;-41
2024/02/02 08:59:28;;;;;;;;;;;;;;;16.02;37.56;101477.81;4901214;29;1190;-39
2024/02/02 09:01:54;;;;;;;;;;;;;;;17.58;35.18;101472.72;4898314;29;903;-38
2024/02/02 09:04:42;;;;;;;;;;;;;;;17.10;35.33;101457.22;4897438;29;1113;-39
2024/02/02 09:07:08;;;;;;;;;;;;;;;15.89;37.97;101461.75;4901193;29;1898;-38
2024/02/02 09:09:34;;;;;;;;;;;;;;;16.78;36.72;101471.56;4900523;29;1217;-40
2024/02/02 09:12:00;;;;;;;;;;;;;;;16.55;36.84;101463.19;4913817;29;1398;-42
2024/02/02 09:14:25;;;;;;;;;;;;;;;15.71;38.21;101463.66;4890991;29;1046;-40
2024/02/02 09:16:51;;;;;;;;;;;;;;;17.71;34.77;101463.94;4897951;29;1121;-43
2024/02/02 09:19:20;;;;;;;;;;;;;;;16.11;37.57;101476.44;4882644;29;1155;-47
2024/02/02 09:21:45;;;;;;;;;;;;;;;16.71;36.80;101472.88;4897410;29;1134;-46
2024/02/02 09:24:12;;;;;;;;;;;;;;;16.99;35.87;101472.00;4897686;29;1058;-46
2024/02/02 09:26:38;;;;;;;;;;;;;;;15.88;38.00;101472.44;4914688;29;1293;-47
2024/02/02 09:29:04;;;;;;;;;;;;;;;16.11;38.25;101479.09;4900752;29;1927;-45
2024/02/02 09:31:34;;;;;;;;;;;;;;;17.20;35.47;101466.28;4888810;29;1070;-48
2024/02/02 09:34:01;;;;;;;;;;;;;;;15.84;38.30;101474.41;4904872;29;1527;-42
2024/02/02 09:36:26;;;;;;;;;;;;;;;15.51;39.01;101475.41;4906606;29;1152;-46
2024/02/02 09:38:56;;;;;;;;;;;;;;;16.53;37.46;101473.06;4904453;29;1148;-41
2024/02/02 09:41:28;;;;;;;;;;;;;;;16.90;35.93;101472.56;4888250;29;1197;-46
2024/02/02 09:44:10;;;;;;;;;;;;;;;15.65;38.49;101474.59;4908383;29;1067;-45
2024/02/02 09:46:36;;;;;;;;;;;;;;;17.89;34.63;101469.84;4906829;29;1154;-45
2024/02/02 09:49:22;;;;;;;;;;;;;;;16.34;37.11;101479.50;4891459;29;1910;-46
2024/02/02 09:51:53;;;;;;;;;;;;;;;15.78;38.49;101475.63;4886073;29;1038;-45
2024/02/02 09:54:25;;;;;;;;;;;;;;;17.56;35.34;101479.97;4901583;29;1071;-44
2024/02/02 09:56:55;;;;;;;;;;;;;;;16.32;37.22;101483.19;4901679;29;1066;-46
2024/02/02 09:59:25;;;;;;;;;;;;;;;15.62;38.52;101474.78;4902485;29;2625;-42
2024/02/02 10:01:58;;;;;;;;;;;;;;;17.24;35.65;101474.94;4903725;29;1284;-45
2024/02/02 10:04:31;;;;;;;;;;;;;;;15.84;38.01;101482.38;4918317;29;1277;-44
2024/02/02 10:07:19;;;;;;;;;;;;;;;17.55;35.43;101485.41;4903966;29;1284;-42
2024/02/02 10:09:51;;;;;;;;;;;;;;;16.58;36.55;101486.91;4903874;29;1363;-47
2024/02/02 10:12:31;;;;;;;;;;;;;;;15.86;38.33;101479.63;4898726;29;991;-45
2024/02/02 10:15:09;;;;;;;;;;;;;;;15.51;38.88;101475.41;4903850;29;1134;-48
2024/02/02 10:17:43;;;;;;;;;;;;;;;17.65;35.20;101478.50;4903148;29;1292;-43
2024/02/02 10:20:18;;;;;;;;;;;;;;;16.01;37.93;101476.13;4902394;29;1276;-45
2024/02/02 10:22:48;;;;;;;;;;;;;;;17.29;35.79;101474.63;4903348;29;1355;-44
2024/02/02 10:25:16;;;;;;;;;;;;;;;16.91;36.13;101481.41;4915036;29;1459;-43
2024/02/02 10:28:01;;;;;;;;;;;;;;;15.93;38.14;101475.69;4903605;29;1903;-44
2024/02/02 10:30:32;;;;;;;;;;;;;;;16.67;36.88;101474.88;4900516;29;2752;-46
2024/02/02 10:33:00;;;;;;;;;;;;;;;17.02;35.78;101468.28;4914724;29;1192;-43
2024/02/02 10:35:29;;;;;;;;;;;;;;;15.95;38.02;101467.63;4894069;29;1119;-44
2024/02/02 10:37:54;;;;;;;;;;;;;;;16.37;37.80;101471.34;4893883;29;1137;-47
2024/02/02 10:40:39;;;;;;;;;;;;;;;17.31;35.45;101467.41;4917862;29;1081;-45
2024/02/02 10:43:05;;;;;;;;;;;;;;;15.84;38.21;101469.09;4901875;29;963;-45
2024/02/02 10:45:33;;;;;;;;;;;;;;;15.58;39.00;101471.44;4903557;29;1041;-47
2024/02/02 10:48:22;;;;;;;;;;;;;;;17.68;34.83;101473.00;4902309;29;1899;-45
2024/02/02 10:50:50;;;;;;;;;;;;;;;15.94;38.01;101468.56;4875350;29;1131;-44
2024/02/02 10:53:28;;;;;;;;;;;;;;;17.08;36.39;101469.72;4903563;29;1002;-45
2024/02/02 10:55:59;;;;;;;;;;;;;;;16.37;37.27;101468.69;4903142;29;1078;-44
2024/02/02 10:58:25;;;;;;;;;;;;;;;15.71;38.79;101476.94;4902506;29;1145;-43
2024/02/02 11:01:03;;;;;;;;;;;;;;;16.91;36.52;101473.44;4901456;29;1106;-48
2024/02/02 11:03:36;;;;;;;;;;;;;;;16.49;37.06;101487.47;4893519;29;1157;-46
2024/02/02 11:06:06;;;;;;;;;;;;;;;15.78;38.56;101480.09;4891645;29;1067;-45
2024/02/02 11:08:34;;;;;;;;;;;;;;;15.49;39.38;101478.16;4902924;29;1966;-46
2024/02/02 11:11:12;;;;;;;;;;;;;;;17.46;35.33;101478.84;4901512;29;1063;-42
2024/02/02 11:13:44;;;;;;;;;;;;;;;15.87;38.04;101481.31;4896464;29;1379;-47
2024/02/02 11:16:22;;;;;;;;;;;;;;;15.45;38.96;101479.25;4902918;29;1030;-44
2024/02/02 11:19:06;;;;;;;;;;;;;;;17.74;35.00;101479.69;4901285;29;1376;-45
2024/02/02 11:21:42;;;;;;;;;;;;;;;16.09;38.00;101480.97;4902974;29;1354;-45
2024/02/02 11:24:13;;;;;;;;;;;;;;;15.52;38.91;101483.28;4891640;29;1438;-47
2024/02/02 11:26:40;;;;;;;;;;;;;;;17.25;36.02;101480.16;4890371;29;1201;-45
2024/02/02 11:29:12;;;;;;;;;;;;;;;16.19;37.63;101483.94;4898274;29;1981;-44
2024/02/02 11:31:43;;;;;;;;;;;;;;;15.62;38.68;101483.59;4899436;29;1423;-48
2024/02/02 11:34:33;;;;;;;;;;;;;;;17.21;36.19;101489.28;4889745;29;1124;-47
2024/02/02 11:37:05;;;;;;;;;;;;;;;16.28;37.51;101490.50;4894250;29;1578;-46
2024/02/02 11:39:38;;;;;;;;;;;;;;;15.58;39.02;101490.00;4902451;29;1120;-44
2024/02/02 11:42:04;;;;;;;;;;;;;;;16.81;37.01;101494.41;4900674;29;1402;-45
2024/02/02 11:44:30;;;;;;;;;;;;;;;16.28;37.37;101487.84;4902301;29;1409;-46
2024/02/02 11:46:55;;;;;;;;;;;;;;;15.75;38.80;101491.72;4902316;29;1206;-48
2024/02/02 11:49:22;;;;;;;;;;;;;;;17.69;34.88;101490.66;4901248;29;1904;-48
2024/02/02 11:51:52;;;;;;;;;;;;;;;16.03;37.74;101482.16;4902204;29;1256;-45
2024/02/02 11:54:21;;;;;;;;;;;;;;;15.51;38.67;101484.22;4901707;29;1366;-45
2024/02/02 11:56:47;;;;;;;;;;;;;;;17.16;36.19;101486.06;4902283;29;1117;-45
2024/02/02 11:59:27;;;;;;;;;;;;;;;16.09;37.83;101485.41;4916581;29;1454;-43
2024/02/02 12:02:02;;;;;;;;;;;;;;;15.45;39.36;101481.91;4900171;29;1356;-46
2024/02/02 12:04:28;;;;;;;;;;;;;;;17.55;35.34;101475.59;4890314;29;1403;-44
2024/02/02 12:06:53;;;;;;;;;;;;;;;16.39;37.04;101479.22;4901853;29;1220;-47
2024/02/02 12:09:21;;;;;;;;;;;;;;;15.69;38.79;101480.59;4901773;29;1911;-44
2024/02/02 12:11:48;;;;;;;;;;;;;;;17.33;35.86;101476.16;4895117;29;1026;-45
2024/02/02 12:14:25;;;;;;;;;;;;;;;16.58;36.89;101481.59;4899978;29;1126;-43
2024/02/02 12:16:51;;;;;;;;;;;;;;;15.91;38.46;101467.78;4901342;29;1414;-43
2024/02/02 12:19:17;;;;;;;;;;;;;;;17.99;34.57;101464.75;4897380;29;1367;-45
2024/02/02 12:21:44;;;;;;;;;;;;;;;16.27;37.53;101478.16;4896920;29;1494;-43
2024/02/02 12:24:11;;;;;;;;;;;;;;;15.73;38.81;101482.97;4901650;29;1073;-46
2024/02/02 12:26:36;;;;;;;;;;;;;;;17.33;35.61;101478.81;4901074;29;1433;-47
2024/02/02 12:29:02;;;;;;;;;;;;;;;15.95;38.27;101476.44;4901428;29;1984;-44
2024/02/02 12:31:28;;;;;;;;;;;;;;;15.58;38.76;101481.22;4901336;29;1018;-46
2024/02/02 12:33:54;;;;;;;;;;;;;;;17.48;35.85;101467.16;4895665;29;1142;-46
2024/02/02 12:36:21;;;;;;;;;;;;;;;16.35;37.41;101467.09;4893633;29;1098;-46
2024/02/02 12:38:47;;;;;;;;;;;;;;;15.64;38.73;101480.88;4896032;29;1197;-45
2024/02/02 12:41:13;;;;;;;;;;;;;;;17.57;35.48;101472.81;4888938;29;1082;-47
2024/02/02 12:43:40;;;;;;;;;;;;;;;16.22;37.38;101483.75;4888623;29;1059;-48
2024/02/02 12:46:06;;;;;;;;;;;;;;;16.95;36.57;101475.78;4903165;29;1238;-45
2024/02/02 12:48:31;;;;;;;;;;;;;;;17.64;34.87;101476.78;4893583;29;1982;-44